Time;durP1;ratioP1;P1;durP2;ratioP2;P2;SDS_P1;SDS_P2;PMS_P1;PMS_P2;Temp;Humidity;BMP_temperature;BMP_pressure;BME280_temperature;BME280_humidity;BME280_pressure;Samples;Min_cycle;Max_cycle;Signal;HPM_P1;HPM_P2
2022/05/10 00:00:54;;;;;;;11.57;8.23;;;12.80;99.90;;;;;;5051759;28;20180;-57
2022/05/10 00:03:23;;;;;;;13.93;8.63;;;12.80;99.90;;;;;;5051620;28;20182;-55
2022/05/10 00:05:49;;;;;;;14.00;9.17;;;12.80;99.90;;;;;;5051652;28;20217;-57
2022/05/10 00:08:17;;;;;;;14.30;9.27;;;12.80;99.90;;;;;;5051415;28;20182;-57
2022/05/10 00:10:44;;;;;;;15.10;9.13;;;12.70;99.90;;;;;;5051651;28;20181;-59
2022/05/10 00:13:12;;;;;;;16.87;8.70;;;12.70;99.90;;;;;;5051294;28;20197;-58
2022/05/10 00:15:40;;;;;;;12.80;8.67;;;12.70;99.90;;;;;;5051525;28;20587;-57
2022/05/10 00:18:07;;;;;;;16.40;9.40;;;12.70;99.90;;;;;;5051394;28;20178;-57
2022/05/10 00:20:32;;;;;;;19.70;8.20;;;12.70;99.90;;;;;;5051385;28;20572;-57
2022/05/10 00:22:58;;;;;;;14.83;9.10;;;12.70;99.90;;;;;;5051232;28;20226;-58
2022/05/10 00:25:26;;;;;;;13.67;8.70;;;12.70;99.90;;;;;;5051444;28;20264;-57
2022/05/10 00:27:52;;;;;;;11.87;8.53;;;12.70;99.90;;;;;;5051393;28;20174;-58
2022/05/10 00:30:19;;;;;;;12.13;8.03;;;12.70;99.90;;;;;;5051075;28;20178;-58
2022/05/10 00:32:45;;;;;;;14.13;8.67;;;12.70;99.90;;;;;;5051568;28;20232;-58
2022/05/10 00:35:16;;;;;;;13.93;8.70;;;12.70;99.90;;;;;;5051174;28;20183;-57
2022/05/10 00:37:44;;;;;;;13.47;8.60;;;12.60;99.90;;;;;;5051416;28;20166;-58
2022/05/10 00:40:11;;;;;;;10.03;7.90;;;12.60;99.90;;;;;;5050841;28;20185;-57
2022/05/10 00:42:48;;;;;;;12.33;8.00;;;12.60;99.90;;;;;;5052987;28;20182;-58
2022/05/10 00:45:19;;;;;;;13.47;8.60;;;12.60;99.90;;;;;;5054934;28;20243;-57
2022/05/10 00:47:56;;;;;;;12.87;8.53;;;12.60;99.90;;;;;;5054888;28;20620;-57
2022/05/10 00:50:40;;;;;;;17.17;8.97;;;12.60;99.90;;;;;;5054611;28;20182;-57
2022/05/10 00:53:32;;;;;;;11.77;8.30;;;12.60;99.90;;;;;;5054891;28;20604;-58
2022/05/10 00:56:09;;;;;;;13.03;9.17;;;12.60;99.90;;;;;;5054591;28;20604;-57
2022/05/10 00:58:45;;;;;;;13.20;8.77;;;12.60;99.90;;;;;;5054794;28;20165;-56
2022/05/10 01:01:16;;;;;;;15.00;8.37;;;12.60;99.90;;;;;;5053396;28;20535;-58
2022/05/10 01:03:55;;;;;;;21.97;8.47;;;12.60;99.90;;;;;;5054812;28;20170;-58
2022/05/10 01:06:31;;;;;;;13.07;8.40;;;12.60;99.90;;;;;;5054154;28;20182;-57
2022/05/10 01:09:02;;;;;;;15.90;8.77;;;12.60;99.90;;;;;;5054405;28;20538;-58
2022/05/10 01:12:00;;;;;;;11.03;7.03;;;12.50;99.90;;;;;;5054516;28;20178;-58
2022/05/10 01:14:50;;;;;;;11.73;7.40;;;12.50;99.90;;;;;;5026337;28;20233;-57
2022/05/10 01:17:16;;;;;;;16.57;7.53;;;12.50;99.90;;;;;;5054146;28;20163;-58
2022/05/10 01:19:44;;;;;;;17.53;7.93;;;12.50;99.90;;;;;;5054338;28;20178;-58
2022/05/10 01:22:38;;;;;;;17.20;7.60;;;12.50;99.90;;;;;;5053015;28;20253;-58
2022/05/10 01:25:33;;;;;;;10.80;7.13;;;12.50;99.90;;;;;;5054202;28;20223;-60
2022/05/10 01:28:21;;;;;;;14.97;7.50;;;12.50;99.90;;;;;;5022919;28;20201;-58
2022/05/10 01:30:46;;;;;;;10.40;6.47;;;12.50;99.90;;;;;;5034423;28;20167;-56
2022/05/10 01:33:40;;;;;;;21.97;7.27;;;12.40;99.90;;;;;;5034218;28;20189;-58
2022/05/10 01:36:32;;;;;;;12.00;6.23;;;12.40;99.90;;;;;;5034238;28;20183;-58
2022/05/10 01:39:18;;;;;;;12.87;6.67;;;12.40;99.90;;;;;;5034604;28;20175;-58
2022/05/10 01:41:59;;;;;;;10.20;6.47;;;12.40;99.90;;;;;;5034544;28;20226;-57
2022/05/10 01:44:38;;;;;;;10.23;6.67;;;12.40;99.90;;;;;;5034083;28;20211;-58
2022/05/10 01:47:30;;;;;;;9.17;6.57;;;12.30;99.90;;;;;;5033923;28;20245;-59
2022/05/10 01:50:25;;;;;;;14.37;6.83;;;12.30;99.90;;;;;;5034136;28;20176;-58
2022/05/10 01:53:14;;;;;;;11.77;7.27;;;12.30;99.90;;;;;;5034155;28;20241;-58
2022/05/10 01:55:54;;;;;;;11.90;6.60;;;12.30;99.90;;;;;;5033657;28;20178;-56
2022/05/10 01:58:23;;;;;;;13.17;6.80;;;12.20;99.90;;;;;;5033638;28;20170;-57
2022/05/10 02:01:07;;;;;;;15.50;7.23;;;12.20;99.90;;;;;;5033669;28;20182;-58
2022/05/10 02:03:50;;;;;;;11.30;6.77;;;12.20;99.90;;;;;;5033933;28;20230;-58
2022/05/10 02:06:46;;;;;;;10.47;6.43;;;12.20;99.90;;;;;;5033401;28;20186;-58
2022/05/10 02:09:24;;;;;;;11.03;6.80;;;12.20;99.90;;;;;;5033410;28;20222;-57
2022/05/10 02:11:58;;;;;;;8.80;6.43;;;12.20;99.90;;;;;;5046218;28;20701;-57
2022/05/10 02:14:34;;;;;;;8.97;5.80;;;12.20;99.90;;;;;;5053182;28;20632;-58
2022/05/10 02:17:04;;;;;;;14.20;7.27;;;12.20;99.90;;;;;;5052151;28;20612;-58
2022/05/10 02:20:04;;;;;;;12.10;6.33;;;12.20;99.90;;;;;;5051627;28;20178;-58
2022/05/10 02:22:50;;;;;;;28.97;7.57;;;12.20;99.90;;;;;;5053076;28;20189;-57
2022/05/10 02:25:34;;;;;;;9.53;6.30;;;12.10;99.90;;;;;;5052812;28;20276;-57
2022/05/10 02:28:38;;;;;;;11.73;5.93;;;12.20;99.90;;;;;;5052977;28;20201;-58
2022/05/10 02:31:14;;;;;;;9.63;4.93;;;12.20;99.90;;;;;;5031096;28;20282;-55
2022/05/10 02:33:42;;;;;;;10.30;5.30;;;12.20;99.90;;;;;;5033171;28;20257;-58
2022/05/10 02:36:08;;;;;;;16.17;5.10;;;12.20;99.90;;;;;;5032507;28;20179;-58
2022/05/10 02:38:37;;;;;;;6.83;4.13;;;12.10;99.90;;;;;;5033124;28;20270;-58
2022/05/10 02:41:09;;;;;;;17.07;5.33;;;12.10;99.90;;;;;;5032879;28;20179;-59
2022/05/10 02:43:44;;;;;;;15.53;4.70;;;12.10;99.90;;;;;;5033048;28;20159;-58
2022/05/10 02:46:10;;;;;;;9.00;4.10;;;12.10;99.90;;;;;;5032122;28;20656;-59
2022/05/10 02:48:37;;;;;;;13.87;4.63;;;12.10;99.90;;;;;;5032587;28;20225;-57
2022/05/10 02:51:03;;;;;;;17.50;4.87;;;12.10;99.90;;;;;;5032811;28;20198;-58
2022/05/10 02:53:29;;;;;;;11.17;4.33;;;12.00;99.90;;;;;;5032513;28;20184;-58
2022/05/10 02:56:02;;;;;;;10.33;3.90;;;12.00;99.90;;;;;;5032659;28;20655;-57
2022/05/10 02:58:50;;;;;;;14.77;4.70;;;12.10;99.90;;;;;;5032524;28;20528;-58
2022/05/10 03:01:23;;;;;;;17.23;5.00;;;12.10;99.90;;;;;;5031647;28;20220;-58
2022/05/10 03:03:49;;;;;;;21.27;4.90;;;12.10;99.90;;;;;;5032126;28;20196;-58
2022/05/10 03:06:21;;;;;;;5.30;3.23;;;12.10;99.90;;;;;;5032313;28;20228;-57
2022/05/10 03:08:48;;;;;;;9.80;3.53;;;12.10;99.90;;;;;;5032556;28;20181;-58
2022/05/10 03:11:14;;;;;;;16.80;4.63;;;12.10;99.90;;;;;;5039497;28;20313;-59
2022/05/10 03:13:41;;;;;;;5.23;3.07;;;12.00;99.90;;;;;;5052163;28;20678;-57
2022/05/10 03:16:07;;;;;;;10.33;3.67;;;12.10;99.90;;;;;;5051754;28;20190;-57
2022/05/10 03:18:32;;;;;;;7.67;3.80;;;12.10;99.90;;;;;;5051960;28;20629;-55
2022/05/10 03:20:58;;;;;;;10.50;4.17;;;12.10;99.90;;;;;;5052015;28;20304;-58
2022/05/10 03:23:25;;;;;;;5.83;3.40;;;12.10;99.90;;;;;;5051923;28;20238;-58
2022/05/10 03:25:50;;;;;;;8.30;3.70;;;12.20;99.90;;;;;;5051892;28;20633;-59
2022/05/10 03:28:16;;;;;;;9.37;4.50;;;12.10;99.90;;;;;;5051975;28;20182;-58
2022/05/10 03:30:42;;;;;;;13.50;3.43;;;12.10;99.90;;;;;;5050256;28;20185;-59
2022/05/10 03:33:08;;;;;;;11.73;3.60;;;12.10;99.90;;;;;;5051578;28;20205;-58
2022/05/10 03:35:34;;;;;;;18.73;3.50;;;12.10;99.90;;;;;;5051320;28;20204;-59
2022/05/10 03:38:00;;;;;;;22.03;4.23;;;12.20;99.90;;;;;;5051841;28;20186;-60
2022/05/10 03:40:26;;;;;;;12.10;3.70;;;12.30;99.90;;;;;;5051611;28;20265;-58
2022/05/10 03:42:53;;;;;;;12.67;3.87;;;12.30;99.90;;;;;;5051969;28;20275;-58
2022/05/10 03:45:22;;;;;;;8.27;3.20;;;12.30;99.90;;;;;;5051281;28;20313;-59
2022/05/10 03:47:49;;;;;;;11.63;3.80;;;12.30;99.90;;;;;;5051394;28;20178;-59
2022/05/10 03:50:16;;;;;;;7.57;3.00;;;12.30;99.90;;;;;;5051540;28;20239;-58
2022/05/10 03:52:43;;;;;;;16.10;4.43;;;12.20;99.90;;;;;;5049864;28;20189;-58
2022/05/10 03:55:12;;;;;;;13.13;4.23;;;12.20;99.90;;;;;;5051398;28;20179;-58
2022/05/10 03:57:38;;;;;;;6.73;2.87;;;12.20;99.90;;;;;;5051308;28;20174;-57
2022/05/10 04:00:07;;;;;;;9.33;3.30;;;12.10;99.90;;;;;;5051277;28;20273;-57
2022/05/10 04:02:33;;;;;;;20.23;3.23;;;12.10;99.90;;;;;;5051058;28;20281;-58
2022/05/10 04:04:58;;;;;;;6.47;3.47;;;12.20;99.90;;;;;;5050805;28;20244;-58
2022/05/10 04:07:25;;;;;;;9.73;3.07;;;12.20;99.90;;;;;;5050987;28;20185;-58
2022/05/10 04:09:50;;;;;;;8.13;2.97;;;12.30;99.90;;;;;;5051486;28;20521;-60
2022/05/10 04:12:16;;;;;;;10.17;3.40;;;12.30;99.90;;;;;;5051016;28;20189;-58
2022/05/10 04:14:42;;;;;;;15.53;3.80;;;12.60;99.90;;;;;;5050960;28;20182;-59
2022/05/10 04:17:08;;;;;;;9.13;3.63;;;12.80;99.90;;;;;;5051968;28;20175;-58
2022/05/10 04:19:33;;;;;;;8.00;2.73;;;13.00;99.90;;;;;;5054802;28;20179;-58
2022/05/10 04:21:59;;;;;;;11.93;3.13;;;13.00;99.90;;;;;;5054880;28;20318;-58
2022/05/10 04:24:25;;;;;;;11.23;4.07;;;13.00;99.90;;;;;;5054568;28;20323;-57
2022/05/10 04:26:50;;;;;;;31.03;6.00;;;12.90;99.90;;;;;;5054491;28;20200;-59
2022/05/10 04:29:17;;;;;;;14.60;3.13;;;13.00;99.90;;;;;;5054496;28;20193;-61
2022/05/10 04:31:43;;;;;;;11.17;3.43;;;13.00;99.90;;;;;;5054403;28;20185;-59
2022/05/10 04:34:08;;;;;;;10.23;3.40;;;13.10;99.90;;;;;;5054537;28;20182;-58
2022/05/10 04:36:35;;;;;;;9.33;3.10;;;13.10;99.90;;;;;;5054333;28;20198;-60
2022/05/10 04:39:00;;;;;;;8.23;2.90;;;13.00;99.90;;;;;;5054387;28;20186;-56
2022/05/10 04:41:33;;;;;;;8.30;3.07;;;13.00;99.90;;;;;;5054390;28;20650;-60
2022/05/10 04:44:01;;;;;;;9.90;3.17;;;12.90;99.90;;;;;;5051901;28;20648;-59
2022/05/10 04:46:30;;;;;;;9.97;3.30;;;12.90;99.90;;;;;;5044792;28;20186;-60
2022/05/10 04:48:57;;;;;;;12.50;3.23;;;13.10;99.90;;;;;;5040499;28;20194;-57
2022/05/10 04:51:23;;;;;;;9.27;3.23;;;13.10;99.90;;;;;;5048337;28;20252;-59
2022/05/10 04:53:49;;;;;;;8.47;2.90;;;13.20;99.90;;;;;;5051467;28;20186;-54
2022/05/10 04:56:15;;;;;;;10.37;3.40;;;13.20;99.90;;;;;;5053189;28;20301;-57
2022/05/10 04:58:41;;;;;;;10.73;2.93;;;13.20;99.90;;;;;;5045050;28;20201;-58
2022/05/10 05:01:09;;;;;;;11.93;2.90;;;13.30;99.90;;;;;;5038277;28;20248;-56
2022/05/10 05:03:35;;;;;;;9.00;2.70;;;13.30;99.90;;;;;;5053427;28;20190;-55
2022/05/10 05:06:02;;;;;;;11.27;3.00;;;13.40;99.90;;;;;;5040042;28;20675;-56
2022/05/10 05:08:28;;;;;;;8.70;3.00;;;13.40;99.90;;;;;;5053633;28;20190;-57
2022/05/10 05:10:57;;;;;;;13.60;2.50;;;13.50;99.40;;;;;;5043341;28;20200;-55
2022/05/10 05:13:24;;;;;;;17.63;5.37;;;13.50;98.30;;;;;;5052561;28;20283;-58
2022/05/10 05:15:50;;;;;;;15.07;3.33;;;13.50;98.70;;;;;;5050997;28;20209;-59
2022/05/10 05:18:16;;;;;;;9.57;2.80;;;13.60;98.20;;;;;;5038657;28;20200;-59
2022/05/10 05:20:43;;;;;;;9.40;4.20;;;13.50;97.80;;;;;;5053424;28;20659;-58
2022/05/10 05:23:10;;;;;;;10.80;3.60;;;13.60;98.80;;;;;;5053124;28;20238;-59
2022/05/10 05:25:37;;;;;;;7.03;2.73;;;13.70;98.40;;;;;;5052888;28;20634;-60
2022/05/10 05:28:04;;;;;;;9.83;2.90;;;13.90;98.60;;;;;;5051841;28;20182;-60
2022/05/10 05:30:30;;;;;;;19.13;3.93;;;14.10;98.60;;;;;;5041469;28;20270;-58
2022/05/10 05:32:56;;;;;;;11.97;4.40;;;14.40;97.70;;;;;;5040360;28;20186;-55
2022/05/10 05:35:22;;;;;;;17.30;4.37;;;14.60;97.90;;;;;;5052566;28;20202;-59
2022/05/10 05:37:47;;;;;;;13.73;4.20;;;14.70;97.80;;;;;;5043875;28;20527;-59
2022/05/10 05:40:16;;;;;;;11.30;3.13;;;14.90;98.10;;;;;;5040391;28;20207;-59
2022/05/10 05:42:42;;;;;;;8.47;3.20;;;14.90;96.50;;;;;;5050783;28;20229;-60
2022/05/10 05:45:10;;;;;;;16.27;3.37;;;14.90;96.20;;;;;;5052483;28;20271;-60
2022/05/10 05:47:36;;;;;;;25.07;6.03;;;15.00;95.50;;;;;;5051966;28;20766;-59
2022/05/10 05:50:07;;;;;;;8.47;3.43;;;15.30;95.00;;;;;;5051152;28;20644;-58
2022/05/10 05:52:33;;;;;;;12.80;3.37;;;15.30;93.50;;;;;;5051178;28;20235;-60
2022/05/10 05:54:59;;;;;;;15.17;4.73;;;15.20;93.30;;;;;;5052273;28;20178;-58
2022/05/10 05:57:24;;;;;;;11.67;4.37;;;15.20;94.50;;;;;;5050272;28;20196;-60
2022/05/10 05:59:55;;;;;;;12.03;3.27;;;15.30;94.20;;;;;;5050585;28;20217;-61
2022/05/10 06:02:22;;;;;;;6.90;2.73;;;15.50;92.50;;;;;;5050348;28;20197;-60
2022/05/10 06:04:48;;;;;;;8.00;2.47;;;15.60;92.00;;;;;;5050518;28;20332;-60
2022/05/10 06:07:14;;;;;;;7.73;3.57;;;15.90;90.70;;;;;;5048797;28;20254;-61
2022/05/10 06:09:41;;;;;;;19.17;4.53;;;15.70;90.40;;;;;;5050474;28;20182;-60
2022/05/10 06:12:10;;;;;;;17.80;3.80;;;15.70;90.20;;;;;;5050876;28;20179;-60
2022/05/10 06:14:37;;;;;;;9.80;7.90;;;15.80;90.00;;;;;;5051527;28;20548;-59
2022/05/10 06:17:03;;;;;;;16.00;5.10;;;15.80;87.20;;;;;;5052959;28;20178;-57
2022/05/10 06:19:29;;;;;;;19.53;8.27;;;15.90;88.60;;;;;;5052020;28;20182;-60
2022/05/10 06:21:56;;;;;;;7.83;3.43;;;16.10;85.70;;;;;;5052375;28;20585;-60
2022/05/10 06:24:23;;;;;;;13.17;4.53;;;16.00;83.80;;;;;;5051506;28;20230;-60
2022/05/10 06:26:49;;;;;;;4.40;2.37;;;16.10;79.50;;;;;;5051877;28;20186;-60
2022/05/10 06:29:15;;;;;;;8.30;2.90;;;16.10;82.60;;;;;;5046971;28;20187;-60
2022/05/10 06:31:42;;;;;;;13.40;3.20;;;16.00;81.40;;;;;;5032237;28;20183;-64
2022/05/10 06:34:09;;;;;;;11.30;4.40;;;16.10;81.80;;;;;;5032382;28;20229;-63
2022/05/10 06:36:35;;;;;;;13.17;4.40;;;16.20;80.20;;;;;;5033474;28;20182;-60
2022/05/10 06:39:01;;;;;;;13.17;3.37;;;15.80;80.70;;;;;;5051805;28;20185;-59
2022/05/10 06:41:26;;;;;;;7.40;2.40;;;15.90;81.50;;;;;;5050677;28;20190;-59
2022/05/10 06:43:52;;;;;;;17.13;3.07;;;16.10;79.70;;;;;;5051613;28;20248;-60
2022/05/10 06:46:21;;;;;;;20.40;3.27;;;16.20;79.30;;;;;;5051733;28;20635;-60
2022/05/10 06:48:47;;;;;;;10.73;3.23;;;16.40;79.50;;;;;;5050594;28;20293;-60
2022/05/10 06:51:15;;;;;;;10.77;2.70;;;16.50;79.20;;;;;;5050949;28;20235;-60
2022/05/10 06:53:41;;;;;;;9.93;2.70;;;16.70;79.00;;;;;;5051459;28;20206;-63
2022/05/10 06:56:08;;;;;;;8.17;3.17;;;16.50;76.60;;;;;;5051880;28;20197;-60
2022/05/10 06:58:34;;;;;;;14.60;3.20;;;16.50;76.90;;;;;;5051189;28;20265;-62
2022/05/10 07:01:00;;;;;;;12.17;4.93;;;17.00;78.70;;;;;;5051190;28;20649;-60
2022/05/10 07:03:32;;;;;;;8.60;2.70;;;17.40;74.50;;;;;;5051499;28;20671;-63
2022/05/10 07:05:59;;;;;;;10.63;2.83;;;17.10;74.00;;;;;;5051055;28;20305;-61
2022/05/10 07:08:25;;;;;;;10.13;3.60;;;17.10;72.20;;;;;;5051106;28;20217;-63
2022/05/10 07:10:52;;;;;;;11.33;3.73;;;17.10;72.90;;;;;;5051055;28;20636;-60
2022/05/10 07:13:20;;;;;;;8.30;3.00;;;16.60;73.10;;;;;;5051586;28;20193;-61
2022/05/10 07:15:47;;;;;;;8.97;2.83;;;16.40;74.40;;;;;;5051201;28;20266;-60
2022/05/10 07:18:14;;;;;;;8.83;3.00;;;16.50;75.60;;;;;;5050629;28;20650;-61
2022/05/10 07:20:40;;;;;;;13.10;3.60;;;16.70;76.70;;;;;;5050241;28;20231;-61
2022/05/10 07:23:07;;;;;;;16.33;3.70;;;16.90;75.70;;;;;;5051326;28;20229;-60
2022/05/10 07:25:33;;;;;;;11.67;2.97;;;17.20;75.20;;;;;;5050554;28;20206;-61
2022/05/10 07:27:59;;;;;;;6.07;2.47;;;17.50;73.50;;;;;;5050785;28;20269;-59
2022/05/10 07:30:27;;;;;;;21.03;3.40;;;17.10;71.20;;;;;;5050383;28;20255;-60
2022/05/10 07:32:53;;;;;;;18.50;8.33;;;17.00;72.80;;;;;;5051073;28;20209;-60
2022/05/10 07:38:06;;;;;;;14.40;3.33;;;17.10;74.10;;;;;;5050851;28;20193;-61
2022/05/10 07:40:32;;;;;;;11.63;2.97;;;17.00;70.80;;;;;;5050322;28;20186;-62
2022/05/10 07:42:58;;;;;;;8.63;3.03;;;17.00;70.00;;;;;;5049784;28;20182;-61
2022/05/10 07:45:24;;;;;;;8.83;2.87;;;16.90;68.10;;;;;;5050734;28;20225;-63
2022/05/10 07:47:50;;;;;;;14.63;3.03;;;16.90;68.90;;;;;;5050913;28;20179;-59
2022/05/10 07:50:16;;;;;;;7.03;2.50;;;17.10;69.80;;;;;;5048667;28;20599;-61
2022/05/10 07:52:42;;;;;;;12.20;3.30;;;17.30;69.20;;;;;;5049126;28;20252;-59
2022/05/10 07:55:09;;;;;;;13.23;3.43;;;17.40;69.50;;;;;;5050532;28;20197;-60
2022/05/10 07:57:35;;;;;;;15.00;3.97;;;17.50;69.30;;;;;;5050158;28;20277;-62
2022/05/10 08:00:01;;;;;;;7.87;3.10;;;17.50;69.00;;;;;;5050620;28;20308;-60
2022/05/10 08:02:28;;;;;;;5.70;2.50;;;17.70;68.80;;;;;;5050667;28;20221;-62
2022/05/10 08:04:54;;;;;;;9.13;3.00;;;17.60;67.50;;;;;;5050622;28;20218;-60
2022/05/10 08:07:20;;;;;;;9.43;3.07;;;17.70;67.60;;;;;;5050221;28;20609;-60
2022/05/10 08:09:46;;;;;;;12.77;2.90;;;18.00;68.40;;;;;;5049008;28;20213;-59
2022/05/10 08:12:11;;;;;;;10.60;3.38;;;18.70;68.50;;;;;;5049057;28;20213;-59
2022/05/10 08:14:37;;;;;;;9.82;3.45;;;18.90;67.10;;;;;;5050343;28;20189;-60
2022/05/10 08:17:03;;;;;;;7.93;3.45;;;18.90;68.60;;;;;;5050692;28;20186;-60
2022/05/10 08:19:28;;;;;;;8.00;2.75;;;19.00;65.70;;;;;;5050366;28;20542;-60
2022/05/10 08:21:56;;;;;;;11.82;3.22;;;19.00;65.40;;;;;;5048683;28;20285;-61
2022/05/10 08:24:22;;;;;;;8.43;2.63;;;19.10;66.70;;;;;;5048668;28;20272;-62
2022/05/10 08:26:48;;;;;;;22.23;4.28;;;19.30;67.20;;;;;;5049965;28;20548;-59
2022/05/10 08:29:14;;;;;;;13.18;3.75;;;19.50;66.90;;;;;;5050306;28;20182;-60
2022/05/10 08:31:40;;;;;;;6.50;3.42;;;19.50;65.30;;;;;;5050123;28;20189;-62
2022/05/10 08:34:06;;;;;;;6.68;2.97;;;19.70;64.20;;;;;;5050125;28;20195;-56
2022/05/10 08:36:32;;;;;;;12.85;2.33;;;19.60;64.60;;;;;;5049454;28;20253;-60
2022/05/10 08:38:58;;;;;;;28.83;5.22;;;19.20;66.00;;;;;;5050303;28;20656;-58
2022/05/10 08:41:52;;;;;;;23.00;5.18;;;19.20;67.30;;;;;;5050123;28;20178;-62
2022/05/10 08:44:24;;;;;;;10.70;3.42;;;19.70;66.10;;;;;;5050060;28;20174;-59
2022/05/10 08:47:03;;;;;;;7.80;2.78;;;20.20;64.80;;;;;;5050113;28;20573;-61
2022/05/10 08:49:39;;;;;;;7.32;3.10;;;20.50;65.30;;;;;;5050099;28;20308;-58
2022/05/10 08:52:08;;;;;;;8.38;3.22;;;20.50;63.20;;;;;;5050125;28;20190;-57
2022/05/10 08:54:37;;;;;;;9.13;3.88;;;20.90;63.70;;;;;;5049833;28;20193;-57
2022/05/10 08:57:18;;;;;;;20.40;3.38;;;20.90;62.60;;;;;;5049600;28;20543;-61
2022/05/10 09:00:07;;;;;;;14.57;3.25;;;20.70;62.50;;;;;;5050101;28;20313;-63
2022/05/10 09:02:40;;;;;;;13.43;4.18;;;20.70;61.70;;;;;;5049603;28;20170;-56
2022/05/10 09:05:13;;;;;;;12.27;2.65;;;21.00;58.80;;;;;;5052650;28;20258;-59
2022/05/10 09:07:43;;;;;;;9.65;3.35;;;21.10;57.50;;;;;;5052963;28;20264;-59
2022/05/10 09:10:24;;;;;;;6.20;2.63;;;21.50;58.60;;;;;;5053513;28;20166;-64
2022/05/10 09:13:01;;;;;;;12.65;3.05;;;21.20;57.90;;;;;;5032058;28;20185;-62
2022/05/10 09:15:32;;;;;;;3.67;2.03;;;21.30;58.50;;;;;;5033476;28;20175;-65
2022/05/10 09:17:58;;;;;;;9.25;2.40;;;21.20;56.20;;;;;;5033963;28;20175;-62
2022/05/10 09:20:24;;;;;;;16.63;3.15;;;21.20;56.40;;;;;;5032005;28;20667;-62
2022/05/10 09:23:12;;;;;;;9.07;2.40;;;21.30;55.90;;;;;;5031861;28;20231;-60
2022/05/10 09:25:41;;;;;;;6.68;1.85;;;21.30;54.50;;;;;;5033031;28;20258;-61
2022/05/10 09:28:20;;;;;;;9.27;2.78;;;21.40;53.30;;;;;;5033849;28;20179;-62
2022/05/10 09:36:26;;;;;;;7.47;2.38;;;21.40;55.60;;;;;;5052835;28;20185;-58
2022/05/10 09:38:59;;;;;;;10.95;2.40;;;21.20;52.60;;;;;;5048101;28;20171;-59
2022/05/10 09:41:46;;;;;;;5.80;2.50;;;21.50;52.40;;;;;;5033337;28;20508;-60
2022/05/10 09:44:27;;;;;;;10.07;3.10;;;21.60;52.70;;;;;;5032897;28;20319;-59
2022/05/10 09:47:16;;;;;;;14.52;2.83;;;21.40;52.50;;;;;;5032489;28;20175;-59
2022/05/10 09:49:41;;;;;;;6.97;2.47;;;21.00;52.10;;;;;;5032402;28;20163;-61
2022/05/10 09:52:18;;;;;;;10.40;2.35;;;20.90;52.30;;;;;;5032304;28;20510;-61
2022/05/10 09:54:44;;;;;;;9.38;2.88;;;20.80;51.90;;;;;;5032530;28;20167;-62
2022/05/10 09:57:25;;;;;;;8.70;2.60;;;20.80;53.80;;;;;;5032103;28;20195;-60
2022/05/10 09:59:51;;;;;;;15.20;5.65;;;20.50;56.00;;;;;;5033976;28;20269;-62
2022/05/10 10:02:32;;;;;;;6.47;2.80;;;20.60;55.70;;;;;;5052427;28;20210;-60
2022/05/10 10:04:58;;;;;;;11.88;6.00;;;20.70;55.00;;;;;;5052181;28;20210;-62
2022/05/10 10:07:28;;;;;;;16.05;3.88;;;21.30;55.40;;;;;;5050931;28;20186;-61
2022/05/10 10:10:15;;;;;;;4.47;2.97;;;21.60;54.60;;;;;;5051873;28;20604;-59
2022/05/10 10:12:43;;;;;;;8.38;2.50;;;21.90;54.70;;;;;;5051693;28;20244;-61
2022/05/10 10:15:31;;;;;;;10.55;2.60;;;21.60;53.30;;;;;;5051122;28;20281;-62
2022/05/10 10:18:06;;;;;;;7.05;2.65;;;21.50;54.30;;;;;;5051915;28;20560;-59
2022/05/10 10:20:43;;;;;;;6.10;2.47;;;21.50;52.90;;;;;;5051356;28;20231;-58
2022/05/10 10:23:36;;;;;;;10.32;3.47;;;21.20;54.00;;;;;;5051637;28;20370;-59
2022/05/10 10:26:36;;;;;;;7.15;2.97;;;20.90;54.80;;;;;;5051958;28;20313;-59
2022/05/10 10:29:16;;;;;;;16.10;3.10;;;21.30;55.10;;;;;;5051960;28;20179;-60
2022/05/10 10:31:50;;;;;;;13.63;3.80;;;21.80;55.10;;;;;;5051149;28;20584;-60
2022/05/10 10:34:26;;;;;;;9.35;2.40;;;21.80;55.40;;;;;;5051488;28;20166;-60
2022/05/10 10:37:11;;;;;;;12.00;3.10;;;21.90;53.50;;;;;;5052131;28;20182;-61
2022/05/10 10:39:50;;;;;;;8.57;2.58;;;21.70;54.20;;;;;;5051693;28;20243;-61
2022/05/10 10:42:34;;;;;;;4.78;2.65;;;21.80;53.90;;;;;;5051980;28;20209;-61
2022/05/10 10:45:03;;;;;;;10.02;2.88;;;21.70;52.50;;;;;;5051258;28;20541;-59
2022/05/10 10:47:40;;;;;;;8.20;3.50;;;21.70;54.20;;;;;;5051049;28;20178;-59
2022/05/10 10:50:26;;;;;;;9.00;2.95;;;22.00;53.40;;;;;;5050891;28;20190;-61
2022/05/10 10:52:54;;;;;;;7.65;3.22;;;21.80;52.00;;;;;;5050966;28;20269;-60
2022/05/10 10:55:35;;;;;;;14.55;4.10;;;21.90;51.50;;;;;;5049709;28;20193;-60
2022/05/10 10:58:29;;;;;;;16.48;4.25;;;22.10;51.60;;;;;;5049692;28;20167;-62
2022/05/10 11:01:02;;;;;;;9.80;3.50;;;22.10;52.30;;;;;;5049679;28;20170;-59
2022/05/10 11:03:46;;;;;;;11.68;4.50;;;22.30;51.70;;;;;;5050707;28;20186;-60
2022/05/10 11:06:21;;;;;;;7.30;2.60;;;23.00;50.10;;;;;;5050595;28;20198;-61
2022/05/10 11:09:25;;;;;;;5.38;2.92;;;22.50;50.90;;;;;;5030428;28;20202;-59
2022/05/10 11:12:32;;;;;;;6.60;2.40;;;22.40;51.50;;;;;;5042306;28;20269;-59
2022/05/10 11:15:24;;;;;;;4.35;2.45;;;22.10;50.90;;;;;;4969466;28;20192;-61
2022/05/10 11:18:36;;;;;;;4.03;2.53;;;22.50;50.50;;;;;;4969745;28;20577;-59
2022/05/10 11:21:05;;;;;;;12.93;3.33;;;23.20;50.10;;;;;;5032333;28;20698;-61
2022/05/10 11:23:41;;;;;;;16.23;3.20;;;23.80;48.70;;;;;;5050475;28;20240;-61
2022/05/10 11:26:14;;;;;;;15.70;4.57;;;24.70;47.10;;;;;;5050352;28;20601;-59
2022/05/10 11:29:08;;;;;;;16.80;4.82;;;25.40;45.90;;;;;;5050653;28;20162;-59
2022/05/10 11:31:55;;;;;;;9.23;3.22;;;25.60;46.10;;;;;;5050463;28;20171;-61
2022/05/10 11:34:55;;;;;;;7.65;3.17;;;26.00;44.60;;;;;;5050519;28;20535;-60
2022/05/10 11:37:42;;;;;;;10.45;3.45;;;26.40;44.10;;;;;;5050740;28;20182;-58
2022/05/10 11:40:22;;;;;;;6.35;3.00;;;26.30;43.40;;;;;;5050972;28;20170;-59
2022/05/10 11:43:09;;;;;;;4.70;2.78;;;26.40;44.00;;;;;;5050612;28;20528;-63
2022/05/10 11:46:26;;;;;;;9.15;3.65;;;26.30;42.80;;;;;;5048597;28;20218;-59
2022/05/10 11:49:01;;;;;;;7.90;3.42;;;27.40;43.50;;;;;;5008005;28;20247;-65
2022/05/10 11:51:42;;;;;;;14.52;3.80;;;27.70;41.60;;;;;;5048984;28;20258;-69
2022/05/10 11:54:34;;;;;;;9.18;3.40;;;29.10;42.00;;;;;;5050673;28;20177;-58
2022/05/10 11:57:01;;;;;;;10.80;3.25;;;29.00;39.50;;;;;;5051205;28;20175;-61
2022/05/10 11:59:37;;;;;;;5.85;2.78;;;28.80;39.80;;;;;;5048853;28;20209;-66
2022/05/10 12:02:04;;;;;;;7.63;3.30;;;28.80;39.70;;;;;;5050513;28;20185;-60
2022/05/10 12:04:43;;;;;;;15.20;4.13;;;29.10;39.10;;;;;;5050152;28;20251;-62
2022/05/10 12:07:22;;;;;;;9.82;3.47;;;30.60;37.50;;;;;;5050148;28;20192;-62
2022/05/10 12:10:05;;;;;;;12.73;3.40;;;32.00;36.00;;;;;;5050208;28;20190;-60
2022/05/10 12:12:43;;;;;;;5.63;2.88;;;32.50;35.50;;;;;;5048959;28;20182;-60
2022/05/10 12:21:29;;;;;;;10.88;3.08;;;31.40;34.60;;;;;;5050512;28;20193;-60
2022/05/10 12:24:11;;;;;;;9.55;3.00;;;30.20;35.40;;;;;;5049659;28;20230;-58
2022/05/10 12:26:59;;;;;;;14.70;3.65;;;30.10;36.90;;;;;;5048565;28;20264;-60
2022/05/10 12:29:40;;;;;;;12.88;3.83;;;31.30;34.70;;;;;;5040747;28;20257;-59
2022/05/10 12:32:18;;;;;;;12.82;2.97;;;31.30;34.20;;;;;;5049379;28;20185;-63
2022/05/10 12:35:01;;;;;;;9.30;3.00;;;29.90;35.00;;;;;;5048026;28;20186;-59
2022/05/10 12:37:28;;;;;;;11.40;4.68;;;27.50;37.50;;;;;;5047117;28;20182;-61
2022/05/10 12:39:56;;;;;;;24.25;9.50;;;25.90;40.50;;;;;;5052866;28;20232;-60
2022/05/10 12:42:57;;;;;;;7.68;3.40;;;25.10;41.90;;;;;;5052392;28;20179;-61
2022/05/10 12:45:41;;;;;;;12.13;4.00;;;26.80;40.90;;;;;;5052432;28;20214;-58
2022/05/10 12:48:20;;;;;;;18.00;4.40;;;27.80;39.70;;;;;;5053172;28;20261;-60
2022/05/10 12:50:55;;;;;;;16.10;3.70;;;28.80;37.90;;;;;;5054647;28;20295;-60
2022/05/10 12:53:35;;;;;;;22.08;5.00;;;28.00;38.70;;;;;;5054724;28;20191;-61
2022/05/10 12:56:21;;;;;;;14.10;3.72;;;26.60;40.00;;;;;;5053931;28;20305;-61
2022/05/10 12:58:57;;;;;;;9.93;4.70;;;25.80;40.70;;;;;;5053901;28;20166;-61
2022/05/10 13:01:27;;;;;;;18.88;3.83;;;24.70;41.90;;;;;;5053948;28;20649;-61
2022/05/10 13:03:57;;;;;;;11.60;4.13;;;24.00;43.30;;;;;;5053731;28;20250;-58
2022/05/10 13:07:02;;;;;;;9.48;4.13;;;23.40;44.50;;;;;;5053873;28;20225;-59
2022/05/10 13:09:35;;;;;;;9.23;3.05;;;22.60;45.80;;;;;;5053517;28;20186;-59
2022/05/10 13:12:03;;;;;;;14.52;3.33;;;22.10;46.90;;;;;;5053462;28;20548;-58
2022/05/10 13:14:31;;;;;;;28.33;5.75;;;21.50;47.30;;;;;;5053499;28;20190;-57
2022/05/10 13:16:59;;;;;;;9.18;3.00;;;21.30;48.30;;;;;;5053591;28;20174;-60
2022/05/10 13:19:27;;;;;;;15.13;4.78;;;21.30;48.30;;;;;;5053364;28;20610;-60
2022/05/10 13:21:54;;;;;;;14.50;3.28;;;22.00;48.20;;;;;;5052732;28;20275;-60
2022/05/10 13:24:20;;;;;;;8.25;3.10;;;21.90;48.00;;;;;;5052931;28;20245;-59